Powhatan, Louisiana
Current Conditions -  °F | °C
As of 12:35 AM on Monday 26 Jan 2015 (Local Time) from KIER Reporting Station
Clear Clear  
Wind Chill: 45°   Ceiling: Unl
Heat Index: 49°   Visibility: 10mi
Dew Point: 33°   Wind: 8mph
Humidity: 56%   Direction: 280°W
Pressure: 30.1"   Gusts: NA
Location:  31.87°N, 93.2°W
Report Text: KIER 260635Z AUTO 28007KT 10SM CLR 09/01 A3010 RMK AO2 T00930008
Loading
Personal Weather Stations






























Interactive Weather Map New forecast layout! Learn more

10-Day Weather Forecast

Advertisements
Track Severe Weather on mobile